Last 24 Hours

UH Manoa Atmospheric Sciences

15 Minute Data | Pacific/Honolulu
as of 6/25/22 6:25 PM HST
Station Date Time Temp (°F) RH (%) Dew Pt (°F) Wind Spd (mph) Wind Dir (°) Wind Gust (mph) Latest Rain (In) Solar Rad (W/m2) Heat Index (°F) Barometric Press (inHg) Daily Rain (In) Daily Min Temp (°F) Daily Max Temp (°F) Daily Max Wind (mph)
UH Manoa Atmospheric Sciences 6/25/22 1815 79.7 64 66.4 6.9 NE | 47 15.1 0.00 196 80.4 29.99 0.00 73.9 83.3 22.1
UH Manoa Atmospheric Sciences 6/25/22 1800 80.2 63 66.3 5.8 ENE | 57 11.7 0.00 208 81.9 29.99 0.00 73.9 83.3 22.1
UH Manoa Atmospheric Sciences 6/25/22 1745 80.4 61 66.0 7.8 ENE | 66 16.8 0.00 236 82.4 29.99 0.00 73.9 83.3 22.1
UH Manoa Atmospheric Sciences 6/25/22 1730 80.7 60 65.7 7.2 NE | 53 16.1 0.00 280 82.7 29.99 0.00 73.9 83.3 22.1
UH Manoa Atmospheric Sciences 6/25/22 1715 81.6 57 64.8 6.0 NE | 50 12.4 0.00 298 83.3 29.98 0.00 73.9 83.3 22.1
UH Manoa Atmospheric Sciences 6/25/22 1700 81.3 59 65.7 6.6 NE | 42 15.7 0.00 495 83.3 29.98 0.00 73.9 83.3 22.1
UH Manoa Atmospheric Sciences 6/25/22 1645 81.8 60 66.3 7.5 NE | 46 14.7 0.00 540 84.1 29.98 0.00 73.9 83.3 22.1
UH Manoa Atmospheric Sciences 6/25/22 1630 82.0 58 65.9 6.6 NE | 55 13.9 0.00 559 84.2 29.98 0.00 73.9 83.3 22.1
UH Manoa Atmospheric Sciences 6/25/22 1615 81.6 59 66.1 7.6 NE | 46 13.9 0.00 601 83.7 29.98 0.00 73.9 83.3 22.1
UH Manoa Atmospheric Sciences 6/25/22 1600 81.0 62 67.0 10.4 NE | 41 20.2 0.00 590 83.4 29.98 0.00 73.9 83.3 22.1
UH Manoa Atmospheric Sciences 6/25/22 1545 81.3 61 66.7 10.8 NE | 37 20.3 0.00 665 83.6 29.98 0.00 73.9 83.3 22.1
UH Manoa Atmospheric Sciences 6/25/22 1530 81.2 61 66.7 11.5 NE | 36 21.2 0.00 775 83.6 29.98 0.00 73.9 83.3 22.1
UH Manoa Atmospheric Sciences 6/25/22 1515 82.0 59 66.5 9.0 NNE | 33 20.5 0.00 753 84.4 29.99 0.00 73.9 83.3 22.1
UH Manoa Atmospheric Sciences 6/25/22 1500 81.4 61 66.5 9.6 NNE | 32 19.3 0.00 915 83.7 29.99 0.00 73.9 83.3 22.1
UH Manoa Atmospheric Sciences 6/25/22 1445 81.6 61 66.9 9.9 NNE | 30 20.0 0.00 889 84.1 29.99 0.00 73.9 83.3 22.1
UH Manoa Atmospheric Sciences 6/25/22 1430 82.0 60 66.6 11.5 NE | 42 20.2 0.00 898 84.4 29.99 0.00 73.9 83.3 22.1
UH Manoa Atmospheric Sciences 6/25/22 1415 81.3 59 65.9 13.5 NE | 39 21.5 0.00 933 83.4 29.99 0.00 73.9 83.3 22.1
UH Manoa Atmospheric Sciences 6/25/22 1400 81.9 58 65.6 12.4 NE | 43 22.1 0.00 948 83.9 30.00 0.00 73.9 83.3 22.1
UH Manoa Atmospheric Sciences 6/25/22 1345 82.6 56 65.4 10.3 NE | 38 20.8 0.00 981 84.6 30.00 0.00 73.9 83.3 21.7
UH Manoa Atmospheric Sciences 6/25/22 1330 81.7 59 65.8 10.2 NE | 38 21.2 0.00 969 83.7 30.00 0.00 73.9 83.2 21.7
UH Manoa Atmospheric Sciences 6/25/22 1315 82.0 61 67.2 9.8 NE | 44 19.8 0.00 986 84.6 30.01 0.00 73.9 83.2 21.7
UH Manoa Atmospheric Sciences 6/25/22 1300 81.6 62 67.5 9.6 NE | 35 17.1 0.00 1,003 84.3 30.01 0.00 73.9 82.6 21.7
UH Manoa Atmospheric Sciences 6/25/22 1245 80.9 63 67.2 10.5 NE | 43 21.2 0.00 1,032 83.4 30.01 0.00 73.9 82.3 21.7
UH Manoa Atmospheric Sciences 6/25/22 1230 80.9 64 67.8 10.6 NE | 39 20.3 0.00 881 83.6 30.02 0.00 73.9 82.0 21.7
UH Manoa Atmospheric Sciences 6/25/22 1215 80.9 64 67.5 12.8 NE | 38 21.7 0.00 1,027 83.4 30.02 0.00 73.9 82.0 21.7
UH Manoa Atmospheric Sciences 6/25/22 1200 81.0 63 67.4 9.2 NE | 36 20.3 0.00 1,004 83.6 30.02 0.00 73.9 82.0 20.8
UH Manoa Atmospheric Sciences 6/25/22 1145 81.1 63 67.5 9.2 NNE | 32 17.9 0.00 988 83.7 30.02 0.00 73.9 82.0 20.8
UH Manoa Atmospheric Sciences 6/25/22 1130 80.7 64 67.6 9.6 NE | 36 19.2 0.00 966 83.1 30.02 0.00 73.9 81.9 20.8
UH Manoa Atmospheric Sciences 6/25/22 1115 80.9 64 67.8 8.4 NNE | 33 15.3 0.00 947 83.6 30.03 0.00 73.9 81.9 20.8
UH Manoa Atmospheric Sciences 6/25/22 1100 81.0 64 67.9 7.8 NE | 34 14.5 0.00 914 83.7 30.03 0.00 73.9 81.9 20.8
UH Manoa Atmospheric Sciences 6/25/22 1045 80.1 66 67.7 9.8 NE | 37 19.8 0.00 881 82.3 30.03 0.00 73.9 81.5 20.8
UH Manoa Atmospheric Sciences 6/25/22 1030 80.3 66 67.7 10.1 NE | 35 17.7 0.00 863 82.6 30.03 0.00 73.9 81.5 20.8
UH Manoa Atmospheric Sciences 6/25/22 1015 80.3 65 67.4 8.9 NE | 41 17.9 0.00 825 82.4 30.03 0.00 73.9 81.5 20.8
UH Manoa Atmospheric Sciences 6/25/22 1000 80.6 63 66.6 9.2 NE | 36 17.5 0.00 768 82.6 30.03 0.00 73.9 81.5 20.8
UH Manoa Atmospheric Sciences 6/25/22 0945 80.9 61 66.0 7.0 NE | 44 14.5 0.00 721 83.0 30.03 0.00 73.9 81.4 20.8
UH Manoa Atmospheric Sciences 6/25/22 0930 80.1 62 66.0 7.5 NE | 47 13.3 0.00 676 81.4 30.03 0.00 73.9 80.9 20.8
UH Manoa Atmospheric Sciences 6/25/22 0915 80.0 62 65.7 7.2 NE | 50 12.7 0.00 628 81.1 30.03 0.00 73.9 80.6 20.8
UH Manoa Atmospheric Sciences 6/25/22 0900 79.4 63 65.6 6.8 NE | 44 14.5 0.00 580 79.4 30.03 0.00 73.9 80.1 20.8
UH Manoa Atmospheric Sciences 6/25/22 0845 79.4 63 66.0 5.4 NE | 40 12.6 0.00 528 79.5 30.03 0.00 73.9 80.1 20.8
UH Manoa Atmospheric Sciences 6/25/22 0830 79.1 67 67.0 3.6 NE | 54 7.3 0.00 492 79.1 30.03 0.00 73.9 79.6 20.8
UH Manoa Atmospheric Sciences 6/25/22 0815 78.4 69 67.6 3.6 NE | 36 10.0 0.00 436 78.4 30.02 0.00 73.9 79.3 20.8
UH Manoa Atmospheric Sciences 6/25/22 0800 77.7 70 67.2 4.3 NE | 49 11.0 0.00 372 77.7 30.02 0.00 73.9 78.2 20.8
UH Manoa Atmospheric Sciences 6/25/22 0745 77.6 71 67.3 3.1 NE | 34 9.2 0.00 322 77.6 30.02 0.00 73.9 78.0 20.8
UH Manoa Atmospheric Sciences 6/25/22 0730 77.1 72 67.4 1.9 ENE | 68 5.7 0.00 282 77.1 30.02 0.00 73.9 77.7 20.8
UH Manoa Atmospheric Sciences 6/25/22 0715 75.9 74 67.1 1.6 ESE | 117 4.5 0.00 220 75.9 30.02 0.00 73.9 76.6 20.8
UH Manoa Atmospheric Sciences 6/25/22 0700 75.1 75 66.6 1.0 S | 176 3.4 0.00 146 75.1 30.01 0.00 73.9 76.0 20.8
UH Manoa Atmospheric Sciences 6/25/22 0645 74.6 75 66.0 1.0 SSW | 203 4.4 0.00 48 74.6 30.01 0.00 73.9 76.0 20.8
UH Manoa Atmospheric Sciences 6/25/22 0630 74.8 74 65.9 1.6 S | 169 4.7 0.00 17 74.8 30.01 0.00 73.9 76.0 20.8
UH Manoa Atmospheric Sciences 6/25/22 0615 74.4 74 65.8 1.6 ENE | 72 4.9 0.00 9 74.4 30.00 0.00 73.9 76.0 20.8
UH Manoa Atmospheric Sciences 6/25/22 0600 74.2 74 65.5 0.7 SSE | 149 3.3 0.00 2 74.2 30.00 0.00 74.0 76.0 20.8
UH Manoa Atmospheric Sciences 6/25/22 0545 74.4 74 65.5 1.1 SSE | 149 6.3 0.00 0 74.4 30.00 0.00 74.0 76.0 20.8
UH Manoa Atmospheric Sciences 6/25/22 0530 74.4 74 65.5 2.0 SSE | 158 6.7 0.00 0 74.4 30.00 0.00 74.0 76.0 20.8
UH Manoa Atmospheric Sciences 6/25/22 0515 74.3 74 65.6 1.0 ESE | 123 3.1 0.00 0 74.3 30.00 0.00 74.0 76.0 20.8
UH Manoa Atmospheric Sciences 6/25/22 0500 74.3 74 65.6 1.5 SE | 146 4.8 0.00 0 74.3 30.00 0.00 74.0 76.0 20.8
UH Manoa Atmospheric Sciences 6/25/22 0445 74.6 74 65.8 1.5 WSW | 255 4.7 0.00 0 74.6 29.99 0.00 74.4 76.0 20.8
UH Manoa Atmospheric Sciences 6/25/22 0430 74.8 74 65.9 2.1 SSW | 208 5.1 0.00 0 74.8 29.99 0.00 74.6 76.0 20.8
UH Manoa Atmospheric Sciences 6/25/22 0415 75.0 74 66.0 3.2 ESE | 115 8.6 0.00 0 75.0 29.99 0.00 74.8 76.0 20.8
UH Manoa Atmospheric Sciences 6/25/22 0400 75.1 72 65.7 4.0 ESE | 103 16.5 0.00 0 75.1 29.99 0.00 74.8 76.0 20.8
UH Manoa Atmospheric Sciences 6/25/22 0345 75.0 72 65.3 2.7 ENE | 61 10.1 0.00 0 75.0 29.99 0.00 74.8 76.0 20.8
UH Manoa Atmospheric Sciences 6/25/22 0330 74.9 72 65.2 2.8 WSW | 238 7.9 0.00 0 74.9 29.99 0.00 74.8 76.0 20.8
UH Manoa Atmospheric Sciences 6/25/22 0315 75.1 71 65.2 1.9 SSW | 211 5.9 0.00 0 75.1 29.99 0.00 74.9 76.0 20.8
UH Manoa Atmospheric Sciences 6/25/22 0300 75.1 72 65.6 3.3 E | 96 8.9 0.00 0 75.1 29.99 0.00 74.9 76.0 20.8
UH Manoa Atmospheric Sciences 6/25/22 0245 75.1 73 66.0 6.7 NE | 52 18.7 0.00 0 75.1 29.99 0.00 75.0 76.0 20.8
UH Manoa Atmospheric Sciences 6/25/22 0230 75.2 74 66.4 6.2 ENE | 58 18.2 0.00 0 75.2 29.99 0.00 75.1 76.0 20.8
UH Manoa Atmospheric Sciences 6/25/22 0215 75.3 74 66.6 7.3 NE | 51 16.8 0.00 0 75.3 29.99 0.00 75.1 76.0 20.8
UH Manoa Atmospheric Sciences 6/25/22 0200 75.4 74 66.7 5.2 ENE | 60 12.7 0.00 0 75.4 30.00 0.00 75.3 76.0 20.8
UH Manoa Atmospheric Sciences 6/25/22 0145 75.6 74 66.7 5.0 ENE | 57 16.8 0.00 0 75.6 30.00 0.00 75.3 76.0 20.8
UH Manoa Atmospheric Sciences 6/25/22 0130 75.6 74 66.6 5.4 ENE | 60 12.8 0.00 0 75.6 30.01 0.00 75.3 76.0 20.8
UH Manoa Atmospheric Sciences 6/25/22 0115 75.7 73 66.4 5.2 ENE | 78 12.0 0.00 0 75.7 30.01 0.00 75.3 76.0 20.8
UH Manoa Atmospheric Sciences 6/25/22 0100 75.5 73 66.4 5.0 NNE | 33 17.3 0.00 0 75.5 30.01 0.00 75.3 76.0 20.8
UH Manoa Atmospheric Sciences 6/25/22 0045 75.5 74 66.7 4.6 ENE | 64 12.7 0.00 0 75.5 30.02 0.00 75.3 76.0 20.8
UH Manoa Atmospheric Sciences 6/25/22 0030 75.7 74 66.8 4.4 ENE | 75 10.1 0.00 0 75.7 30.02 0.00 75.5 76.0 20.8
UH Manoa Atmospheric Sciences 6/25/22 0015 75.7 74 66.8 6.1 ENE | 65 20.8 0.00 0 75.7 30.03 0.00 75.6 76.0 20.8
UH Manoa Atmospheric Sciences 6/25/22 0000 75.9 73 66.5 6.0 ENE | 66 15.5 0.00 0 75.9 30.03 0.01 74.0 83.2 21.9
UH Manoa Atmospheric Sciences 6/24/22 2345 75.9 72 66.4 6.0 NE | 54 13.4 0.00 0 75.9 30.04 0.01 74.0 83.2 21.9
UH Manoa Atmospheric Sciences 6/24/22 2330 75.9 73 66.5 5.9 ENE | 60 16.4 0.00 0 75.9 30.04 0.01 74.0 83.2 21.9
UH Manoa Atmospheric Sciences 6/24/22 2315 75.9 72 66.4 3.1 ESE | 107 8.4 0.00 0 75.9 30.04 0.01 74.0 83.2 21.9
UH Manoa Atmospheric Sciences 6/24/22 2300 75.8 73 66.6 3.7 NE | 53 9.5 0.00 0 75.8 30.04 0.01 74.0 83.2 21.9
UH Manoa Atmospheric Sciences 6/24/22 2245 75.9 73 66.6 7.3 ENE | 59 21.9 0.00 0 75.9 30.04 0.01 74.0 83.2 21.9
UH Manoa Atmospheric Sciences 6/24/22 2230 75.8 73 66.6 8.0 NE | 55 17.4 0.00 0 75.8 30.04 0.01 74.0 83.2 21.4
UH Manoa Atmospheric Sciences 6/24/22 2215 75.8 74 66.9 5.5 ENE | 58 13.0 0.00 0 75.8 30.04 0.01 74.0 83.2 21.4
UH Manoa Atmospheric Sciences 6/24/22 2200 75.9 74 67.2 7.3 NE | 55 15.4 0.00 0 75.9 30.03 0.01 74.0 83.2 21.4
UH Manoa Atmospheric Sciences 6/24/22 2145 76.0 74 67.2 6.5 NE | 45 17.4 0.00 0 76.0 30.03 0.01 74.0 83.2 21.4
UH Manoa Atmospheric Sciences 6/24/22 2130 75.7 76 67.5 5.9 NE | 41 19.0 0.00 0 75.7 30.02 0.01 74.0 83.2 21.4
UH Manoa Atmospheric Sciences 6/24/22 2115 75.7 76 67.5 7.0 ENE | 61 13.1 0.00 0 75.7 30.02 0.01 74.0 83.2 21.4
UH Manoa Atmospheric Sciences 6/24/22 2100 75.8 76 67.6 8.8 NE | 47 15.8 0.00 0 75.8 30.01 0.01 74.0 83.2 21.4
UH Manoa Atmospheric Sciences 6/24/22 2045 75.9 75 67.6 11.7 NE | 44 20.5 0.00 0 75.9 30.01 0.01 74.0 83.2 21.4
UH Manoa Atmospheric Sciences 6/24/22 2030 76.4 73 67.2 8.1 NE | 50 15.5 0.00 0 76.4 30.01 0.01 74.0 83.2 21.4
UH Manoa Atmospheric Sciences 6/24/22 2015 76.6 73 67.1 7.8 NE | 46 16.3 0.00 0 76.6 30.00 0.01 74.0 83.2 21.4
UH Manoa Atmospheric Sciences 6/24/22 2000 76.5 73 67.2 10.4 NE | 41 19.8 0.00 0 76.5 30.00 0.01 74.0 83.2 21.4
UH Manoa Atmospheric Sciences 6/24/22 1945 76.4 73 67.4 7.3 NE | 46 16.9 0.00 0 76.4 30.00 0.01 74.0 83.2 21.4
UH Manoa Atmospheric Sciences 6/24/22 1930 76.6 73 67.3 6.7 NNE | 28 14.8 0.00 0 76.6 30.00 0.01 74.0 83.2 21.4
UH Manoa Atmospheric Sciences 6/24/22 1915 77.0 72 67.4 10.0 NE | 36 19.2 0.00 6 77.0 29.99 0.01 74.0 83.2 21.4
UH Manoa Atmospheric Sciences 6/24/22 1900 77.3 72 67.4 9.5 NE | 47 18.9 0.00 37 77.3 29.98 0.01 74.0 83.2 21.4
UH Manoa Atmospheric Sciences 6/24/22 1845 77.4 71 67.3 11.4 NE | 43 19.2 0.00 106 77.4 29.98 0.01 74.0 83.2 21.4
UH Manoa Atmospheric Sciences 6/24/22 1830 77.8 69 66.8 10.1 NE | 38 18.8 0.00 154 77.8 29.98 0.01 74.0 83.2 21.4
UH Manoa Atmospheric Sciences 6/24/22 1815 78.1 68 66.9 9.0 NE | 34 18.8 0.00 202 78.1 29.98 0.01 74.0 83.2 21.4
Max     82.6 76 67.9 13.5 - 22.1 0.00 1,032 84.6 30.04 0.01 75.6 83.3 22.1
Avg     77.9 68 66.6 6.7 - 14.5 0.00 328 78.7 30.01 - - - -
Min     74.2 56 64.8 0.7 - 3.1 0.00 0 74.2 29.98 0.00 73.9 76.0 20.8